Time;durP1;ratioP1;P1;durP2;ratioP2;P2;SDS_P1;SDS_P2;PMS_P1;PMS_P2;Temp;Humidity;BMP_temperature;BMP_pressure;BME280_temperature;BME280_humidity;BME280_pressure;Samples;Min_cycle;Max_cycle;Signal;HPM_P1;HPM_P2
2021/06/19 00:01:05;;;;;;;7.63;2.33;;;;;;;19.90;100.00;100700.92;1809235;78;21055;-73
2021/06/19 00:03:32;;;;;;;4.87;1.60;;;;;;;19.89;100.00;100697.48;1804330;78;21098;-73
2021/06/19 00:05:59;;;;;;;5.73;1.60;;;;;;;19.87;100.00;100700.06;1799012;79;21742;-65
2021/06/19 00:08:26;;;;;;;9.13;1.77;;;;;;;19.77;100.00;100698.00;1787186;79;20998;-71
2021/06/19 00:10:52;;;;;;;8.70;2.37;;;;;;;19.71;100.00;100698.15;1790330;79;21616;-71
2021/06/19 00:13:18;;;;;;;3.53;1.23;;;;;;;19.67;100.00;100694.64;1790563;79;21090;-71
2021/06/19 00:15:45;;;;;;;10.13;1.40;;;;;;;19.60;100.00;100704.50;1795745;78;21494;-73
2021/06/19 00:18:12;;;;;;;4.07;1.20;;;;;;;19.57;100.00;100694.38;1803911;79;21213;-72
2021/06/19 00:20:39;;;;;;;3.93;1.37;;;;;;;19.56;100.00;100694.11;1784389;78;21723;-72
2021/06/19 00:23:05;;;;;;;8.03;1.20;;;;;;;19.61;100.00;100698.17;1802129;78;20969;-71
2021/06/19 00:25:32;;;;;;;4.33;1.50;;;;;;;19.53;100.00;100699.85;1810984;78;21010;-72
2021/06/19 00:27:59;;;;;;;4.17;1.50;;;;;;;19.54;100.00;100695.36;1812892;78;21090;-73
2021/06/19 00:30:27;;;;;;;5.93;2.10;;;;;;;19.52;100.00;100696.92;1810834;78;21206;-71
2021/06/19 00:32:54;;;;;;;5.23;1.40;;;;;;;19.49;100.00;100701.87;1794582;78;20967;-71
2021/06/19 00:35:21;;;;;;;4.00;1.37;;;;;;;19.51;100.00;100702.42;1783372;79;20972;-72
2021/06/19 00:37:48;;;;;;;7.03;1.60;;;;;;;19.51;100.00;100699.78;1804201;79;21019;-72
2021/06/19 00:40:16;;;;;;;4.47;1.47;;;;;;;19.50;100.00;100702.95;1804249;79;20923;-72
2021/06/19 00:42:59;;;;;;;4.60;1.33;;;;;;;19.49;100.00;100705.84;1810125;79;21143;-72
2021/06/19 00:45:29;;;;;;;3.37;1.33;;;;;;;19.44;100.00;100703.38;1807851;78;21021;-71
2021/06/19 00:47:56;;;;;;;3.20;1.40;;;;;;;19.37;100.00;100714.58;1798493;79;21666;-71
2021/06/19 00:50:23;;;;;;;6.83;2.20;;;;;;;19.43;100.00;100708.87;1809821;78;21501;-63
2021/06/19 00:52:50;;;;;;;8.83;1.50;;;;;;;19.43;100.00;100713.67;1803613;79;20951;-71
2021/06/19 00:55:16;;;;;;;4.57;1.63;;;;;;;19.46;100.00;100708.41;1800125;79;21179;-70
2021/06/19 00:57:44;;;;;;;4.30;1.70;;;;;;;19.17;100.00;100710.95;1797338;79;21046;-71
2021/06/19 01:00:12;;;;;;;3.97;1.30;;;;;;;19.34;100.00;100718.19;1793939;79;21027;-71
2021/06/19 01:02:39;;;;;;;4.70;1.60;;;;;;;19.40;100.00;100713.32;1804755;79;20935;-72
2021/06/19 01:05:07;;;;;;;5.57;1.60;;;;;;;19.50;100.00;100720.14;1783796;79;20999;-64
2021/06/19 01:07:35;;;;;;;5.47;1.23;;;;;;;19.62;100.00;100713.55;1774154;79;21157;-72
2021/06/19 01:10:02;;;;;;;6.03;1.60;;;;;;;19.63;100.00;100715.98;1769732;79;20861;-72
2021/06/19 01:12:28;;;;;;;5.77;1.40;;;;;;;19.58;100.00;100715.81;1774111;79;21069;-72
2021/06/19 01:14:56;;;;;;;2.77;1.20;;;;;;;19.52;100.00;100727.86;1770475;79;20958;-72
2021/06/19 01:17:23;;;;;;;8.73;1.87;;;;;;;19.52;100.00;100725.22;1769054;79;21531;-72
2021/06/19 01:20:08;;;;;;;4.63;1.30;;;;;;;19.45;100.00;100727.44;1771272;79;21459;-72
2021/06/19 01:22:38;;;;;;;6.10;1.30;;;;;;;19.41;100.00;100726.30;1786235;79;21807;-73
2021/06/19 01:25:09;;;;;;;4.13;1.20;;;;;;;19.51;100.00;100723.58;1788135;79;20987;-71
2021/06/19 01:27:37;;;;;;;;;;;;;;;19.57;100.00;100730.60;1797022;79;20983;-72
2021/06/19 01:30:07;;;;;;;5.43;1.17;;;;;;;19.64;100.00;100730.00;1775331;79;20450;-72
2021/06/19 01:32:36;;;;;;;2.85;1.12;;;;;;;19.36;100.00;100736.77;1772093;79;21134;-72
2021/06/19 01:35:04;;;;;;;3.20;1.10;;;;;;;19.35;100.00;100734.33;1774556;79;21473;-63
2021/06/19 01:37:31;;;;;;;8.10;2.13;;;;;;;19.43;100.00;100733.49;1783122;79;21052;-73
2021/06/19 01:40:10;;;;;;;2.87;0.90;;;;;;;19.20;100.00;100738.73;1768242;79;20997;-72
2021/06/19 01:42:40;;;;;;;2.77;1.03;;;;;;;19.37;100.00;100736.24;1784413;79;20926;-72
2021/06/19 01:45:18;;;;;;;3.90;1.12;;;;;;;19.36;100.00;100742.58;1768524;79;21145;-71
2021/06/19 01:47:44;;;;;;;3.40;1.10;;;;;;;19.42;100.00;100733.19;1788093;79;21075;-73
2021/06/19 01:50:14;;;;;;;3.70;1.10;;;;;;;19.43;100.00;100736.62;1786511;79;20987;-72
2021/06/19 01:52:41;;;;;;;4.37;1.23;;;;;;;19.29;100.00;100740.55;1786841;79;20902;-68
2021/06/19 01:55:08;;;;;;;2.50;1.20;;;;;;;19.32;100.00;100745.36;1770434;79;21079;-72
2021/06/19 01:57:39;;;;;;;2.87;0.90;;;;;;;19.41;100.00;100736.88;1770065;79;21201;-73
2021/06/19 02:00:13;;;;;;;3.50;1.00;;;;;;;19.51;100.00;100740.28;1777963;79;20990;-73
2021/06/19 02:02:40;;;;;;;3.63;1.00;;;;;;;19.69;100.00;100738.04;1777761;79;21080;-62
2021/06/19 02:05:09;;;;;;;4.07;1.17;;;;;;;19.90;100.00;100735.33;1789408;79;21101;-64
2021/06/19 02:07:55;;;;;;;7.23;1.40;;;;;;;20.14;100.00;100740.03;1782530;79;21022;-71
2021/06/19 02:10:27;;;;;;;5.93;1.07;;;;;;;20.50;100.00;100738.92;1788570;78;21140;-69
2021/06/19 02:12:55;;;;;;;5.07;1.23;;;;;;;20.22;100.00;100738.34;1791503;79;21042;-63
2021/06/19 02:15:24;;;;;;;8.80;1.17;;;;;;;20.86;100.00;100738.22;1797588;79;21557;-71
2021/06/19 02:17:51;;;;;;;5.20;1.00;;;;;;;21.17;100.00;100730.77;1794071;79;21003;-70
2021/06/19 02:20:19;;;;;;;5.83;1.10;;;;;;;21.39;100.00;100732.98;1790608;79;21026;-63
2021/06/19 02:22:45;;;;;;;2.70;1.27;;;;;;;21.58;100.00;100738.30;1808600;79;21081;-70
2021/06/19 02:25:14;;;;;;;4.77;1.00;;;;;;;21.81;100.00;100730.65;1807977;78;21039;-63
2021/06/19 02:27:54;;;;;;;3.37;0.90;;;;;;;22.05;100.00;100737.87;1795596;79;22316;-70
2021/06/19 02:30:23;;;;;;;3.80;0.93;;;;;;;22.26;100.00;100724.84;1781214;79;20971;-64
2021/06/19 02:32:51;;;;;;;5.30;1.30;;;;;;;22.48;100.00;100730.93;1786089;79;21037;-71
2021/06/19 02:35:18;;;;;;;4.97;1.40;;;;;;;22.71;100.00;100736.46;1795650;78;21209;-71
2021/06/19 02:37:46;;;;;;;4.90;1.67;;;;;;;22.92;100.00;100736.66;1804677;79;21071;-73
2021/06/19 02:40:12;;;;;;;3.07;1.10;;;;;;;23.13;100.00;100742.42;1788876;79;21052;-65
2021/06/19 02:42:40;;;;;;;4.47;1.20;;;;;;;23.41;100.00;100737.83;1805036;79;21027;-72
2021/06/19 02:45:12;;;;;;;3.50;1.00;;;;;;;23.64;100.00;100742.78;1811077;78;20912;-65
2021/06/19 02:47:44;;;;;;;4.57;1.40;;;;;;;23.90;100.00;100741.05;1800274;79;21808;-72
2021/06/19 02:50:12;;;;;;;;;;;;;;;24.11;100.00;100746.48;1802381;78;21014;-65
2021/06/19 02:52:42;;;;;;;5.57;1.40;;;;;;;24.34;100.00;100739.34;1808182;79;20205;-75
2021/06/19 02:55:16;;;;;;;5.95;1.70;;;;;;;24.41;100.00;100746.59;1800346;79;20857;-70
2021/06/19 02:57:43;;;;;;;5.63;1.90;;;;;;;24.54;100.00;100748.48;1802558;79;21484;-74
2021/06/19 03:00:15;;;;;;;4.43;1.40;;;;;;;24.72;100.00;100741.31;1809881;78;21398;31
2021/06/19 03:02:42;;;;;;;8.90;1.50;;;;;;;24.81;100.00;100746.38;1746684;80;20993;-74
2021/06/19 03:05:12;;;;;;;3.63;1.30;;;;;;;24.93;100.00;100746.14;1747533;80;21770;-74
2021/06/19 03:07:39;;;;;;;3.23;1.50;;;;;;;25.03;100.00;100746.66;1746997;81;21114;-72
2021/06/19 03:10:09;;;;;;;3.27;1.23;;;;;;;25.17;100.00;100751.75;1746701;81;21502;-74
2021/06/19 03:12:36;;;;;;;3.62;1.40;;;;;;;25.23;100.00;100742.69;1745530;81;21124;-74
2021/06/19 03:15:06;;;;;;;2.92;1.47;;;;;;;25.31;100.00;100742.67;1747546;81;20931;-72
2021/06/19 03:17:33;;;;;;;6.83;2.17;;;;;;;25.44;100.00;100734.89;1747145;80;21039;-73
2021/06/19 03:19:59;;;;;;;4.70;1.23;;;;;;;25.56;100.00;100731.13;1747820;81;21000;-63
2021/06/19 03:22:27;;;;;;;3.77;1.22;;;;;;;25.58;100.00;100727.67;1747417;81;20955;-70
2021/06/19 03:24:53;;;;;;;4.50;1.50;;;;;;;25.51;100.00;100741.29;1747112;81;21113;-76
2021/06/19 03:27:20;;;;;;;5.25;1.67;;;;;;;25.62;100.00;100732.73;1747807;81;21583;-76
2021/06/19 03:29:48;;;;;;;4.28;1.50;;;;;;;25.77;100.00;100719.86;1747674;81;21581;-77
2021/06/19 03:32:15;;;;;;;5.13;1.97;;;;;;;25.93;100.00;100734.78;1747261;81;20949;-65
2021/06/19 03:34:41;;;;;;;7.10;1.67;;;;;;;25.92;100.00;100731.85;1743804;80;21026;-78
2021/06/19 03:37:08;;;;;;;3.98;1.30;;;;;;;25.91;100.00;100732.91;1747593;81;22223;-75
2021/06/19 03:39:35;;;;;;;5.12;1.77;;;;;;;26.10;100.00;100735.75;1747337;81;21423;-75
2021/06/19 03:42:03;;;;;;;5.30;1.70;;;;;;;26.31;100.00;100733.25;1747410;81;21012;-74
2021/06/19 03:44:29;;;;;;;6.22;1.57;;;;;;;26.40;100.00;100731.61;1747018;81;21007;-74
2021/06/19 03:46:56;;;;;;;3.90;1.42;;;;;;;26.34;100.00;100730.03;1738548;81;21070;-73
2021/06/19 03:49:23;;;;;;;3.15;1.82;;;;;;;26.56;100.00;100722.17;1747519;81;21077;-74
2021/06/19 03:51:50;;;;;;;3.67;1.10;;;;;;;26.73;100.00;100733.27;1745084;80;20988;-75
2021/06/19 03:54:16;;;;;;;6.42;1.60;;;;;;;26.90;100.00;100733.67;1746874;81;20861;-75
2021/06/19 03:56:43;;;;;;;4.60;1.45;;;;;;;27.00;100.00;100730.09;1746984;81;20995;-70
2021/06/19 03:59:09;;;;;;;4.65;1.20;;;;;;;27.31;100.00;100735.98;1746232;81;20979;-75
2021/06/19 04:01:36;;;;;;;7.12;1.50;;;;;;;27.31;100.00;100734.64;1747357;81;21146;-75
2021/06/19 04:04:04;;;;;;;7.40;1.82;;;;;;;27.38;100.00;100739.67;1747697;81;21462;-75
2021/06/19 04:06:30;;;;;;;3.22;1.35;;;;;;;27.37;100.00;100730.84;1747594;81;20940;-74
2021/06/19 04:08:58;;;;;;;4.78;1.60;;;;;;;27.52;100.00;100734.45;1746759;81;21012;-64
2021/06/19 04:11:25;;;;;;;12.58;2.70;;;;;;;27.71;100.00;100731.83;1741471;81;21085;-73
2021/06/19 04:13:52;;;;;;;9.55;2.00;;;;;;;27.98;100.00;100732.05;1747956;81;21140;-73
2021/06/19 04:16:18;;;;;;;5.65;1.70;;;;;;;27.98;100.00;100732.05;1746864;81;21147;-75
2021/06/19 04:18:45;;;;;;;5.95;2.05;;;;;;;28.17;100.00;100726.70;1747139;81;20928;-72
2021/06/19 04:21:12;;;;;;;8.85;1.80;;;;;;;28.36;100.00;100724.81;1744219;81;20948;-67
2021/06/19 04:23:38;;;;;;;6.90;1.90;;;;;;;28.51;100.00;100732.42;1747637;81;21039;-77
2021/06/19 04:26:05;;;;;;;9.27;1.53;;;;;;;28.54;100.00;100729.16;1747155;81;21504;-73
2021/06/19 04:28:31;;;;;;;4.03;1.75;;;;;;;28.54;100.00;100717.88;1747785;81;21000;-71
2021/06/19 04:31:03;;;;;;;6.42;1.77;;;;;;;28.29;100.00;100738.34;1746458;81;20974;-71
2021/06/19 04:33:30;;;;;;;3.37;1.30;;;;;;;28.26;100.00;100722.30;1747254;81;21002;-71
2021/06/19 04:35:56;;;;;;;5.55;1.60;;;;;;;28.14;100.00;100733.98;1745854;81;22241;-71
2021/06/19 04:38:23;;;;;;;7.20;1.65;;;;;;;28.28;100.00;100742.11;1746667;81;21148;-73
2021/06/19 04:40:56;;;;;;;5.30;1.47;;;;;;;28.14;100.00;100732.64;1745481;81;21564;-66
2021/06/19 04:43:25;;;;;;;4.87;1.50;;;;;;;28.29;100.00;100739.67;1744467;81;22328;-73
2021/06/19 04:45:49;;;;;;;5.22;2.02;;;;;;;28.52;100.00;100740.71;1746666;81;20948;-75
2021/06/19 04:48:16;;;;;;;7.33;1.75;;;;;;;28.52;100.00;100736.69;1746146;81;21073;-74
2021/06/19 04:50:43;;;;;;;6.47;1.67;;;;;;;28.70;100.00;100737.22;1746741;81;21126;-77
2021/06/19 04:53:11;;;;;;;3.83;1.47;;;;;;;28.54;100.00;100740.69;1746365;81;21042;-77
2021/06/19 04:55:38;;;;;;;6.47;1.50;;;;;;;28.51;100.00;100746.63;1744193;80;21714;-73
2021/06/19 04:58:04;;;;;;;4.72;1.47;;;;;;;28.68;100.00;100744.77;1747536;81;21059;-75
2021/06/19 05:00:32;;;;;;;5.30;1.20;;;;;;;28.87;100.00;100748.77;1747566;81;20913;-77
2021/06/19 05:02:59;;;;;;;3.55;1.30;;;;;;;28.66;100.00;100741.58;1743643;81;21123;-69
2021/06/19 05:05:28;;;;;;;6.25;1.30;;;;;;;29.02;100.00;100743.72;1744382;81;21557;-77
2021/06/19 05:07:55;;;;;;;4.47;1.42;;;;;;;29.24;100.00;100747.86;1742322;81;20885;-72
2021/06/19 05:10:22;;;;;;;3.98;1.45;;;;;;;29.33;100.00;100744.77;1743192;81;20994;-74
2021/06/19 05:12:48;;;;;;;6.17;1.32;;;;;;;29.49;100.00;100746.61;1744276;81;21063;-68
2021/06/19 05:15:18;;;;;;;5.08;1.17;;;;;;;29.76;100.00;100741.02;1744992;81;21069;-74
2021/06/19 05:17:44;;;;;;;5.65;1.25;;;;;;;29.84;98.52;100746.23;1744080;81;20916;-64
2021/06/19 05:20:11;;;;;;;3.42;0.90;;;;;;;29.98;99.63;100745.67;1744755;81;21030;-74
2021/06/19 05:22:38;;;;;;;2.65;1.20;;;;;;;30.25;98.15;100746.98;1744283;81;21270;-75
2021/06/19 05:25:05;;;;;;;3.37;1.27;;;;;;;30.48;96.19;100747.02;1743962;81;21073;-73
2021/06/19 05:27:32;;;;;;;5.20;1.70;;;;;;;30.74;97.52;100749.37;1744634;81;21104;-75
2021/06/19 05:29:59;;;;;;;2.67;0.98;;;;;;;31.04;94.54;100742.20;1744878;81;21033;-66
2021/06/19 05:32:26;;;;;;;5.12;1.10;;;;;;;30.77;96.15;100744.73;1745591;81;20888;-75
2021/06/19 05:34:53;;;;;;;6.03;1.40;;;;;;;30.40;98.92;100741.02;1745317;81;20900;-74
2021/06/19 05:37:19;;;;;;;6.67;1.30;;;;;;;30.67;96.91;100736.86;1744892;81;21011;-78
2021/06/19 05:39:46;;;;;;;5.37;1.45;;;;;;;31.07;92.54;100742.92;1744736;82;21100;-76
2021/06/19 05:42:12;;;;;;;3.62;0.90;;;;;;;31.14;91.70;100733.83;1745115;81;20979;-65
2021/06/19 05:44:39;;;;;;;5.22;1.30;;;;;;;30.90;89.26;100737.67;1744621;81;20959;-78
2021/06/19 05:47:06;;;;;;;2.85;1.20;;;;;;;30.56;98.56;100734.17;1744964;81;21076;-77
2021/06/19 05:49:33;;;;;;;5.92;1.20;;;;;;;30.87;90.66;100732.10;1744791;81;21000;-78
2021/06/19 05:52:00;;;;;;;3.83;1.35;;;;;;;30.65;96.41;100731.53;1745086;81;21137;-78
2021/06/19 05:54:27;;;;;;;4.10;1.25;;;;;;;30.87;95.00;100736.14;1730064;81;20920;-68
2021/06/19 05:56:55;;;;;;;5.45;1.40;;;;;;;30.89;92.82;100737.98;1744728;81;20972;-78
2021/06/19 05:59:22;;;;;;;4.97;1.50;;;;;;;30.97;94.89;100731.86;1744360;81;21055;-70
2021/06/19 06:01:49;;;;;;;5.03;1.00;;;;;;;30.95;93.62;100717.89;1746083;81;20968;-75
2021/06/19 06:04:15;;;;;;;4.28;1.05;;;;;;;30.98;94.58;100718.08;1747047;81;21104;-76
2021/06/19 06:06:42;;;;;;;3.42;1.10;;;;;;;31.17;94.91;100723.23;1746616;81;20924;-69
2021/06/19 06:09:11;;;;;;;4.80;1.20;;;;;;;31.09;88.04;100719.95;1747307;81;21126;-65
2021/06/19 06:11:39;;;;;;;4.92;1.25;;;;;;;30.82;93.80;100729.00;1744330;81;21011;-79
2021/06/19 06:14:08;;;;;;;3.02;1.00;;;;;;;30.99;95.91;100729.66;1746386;81;20983;-74
2021/06/19 06:16:35;;;;;;;3.20;1.17;;;;;;;31.12;89.37;100726.07;1747151;81;22109;-65
2021/06/19 06:19:02;;;;;;;4.37;1.00;;;;;;;31.11;89.42;100728.53;1747371;81;21315;-77
2021/06/19 06:21:28;;;;;;;4.47;1.15;;;;;;;30.97;90.30;100725.13;1746282;81;21069;-74
2021/06/19 06:23:56;;;;;;;9.08;1.35;;;;;;;30.88;89.99;100723.73;1735502;81;21042;-74
2021/06/19 06:26:23;;;;;;;6.47;1.62;;;;;;;30.71;94.67;100724.38;1746839;81;20968;-65
2021/06/19 06:28:50;;;;;;;3.45;1.20;;;;;;;30.84;99.16;100728.67;1747316;81;22288;-79
2021/06/19 06:31:17;;;;;;;4.62;1.17;;;;;;;31.07;88.66;100724.08;1747028;81;21022;-78
2021/06/19 06:33:43;;;;;;;3.55;1.20;;;;;;;30.96;87.17;100728.93;1746015;81;20897;-73
2021/06/19 06:36:10;;;;;;;5.33;1.22;;;;;;;30.70;93.34;100729.53;1747357;81;22428;-77
2021/06/19 06:38:37;;;;;;;4.20;1.27;;;;;;;30.58;97.01;100733.33;1745943;81;20916;-76
2021/06/19 06:41:04;;;;;;;3.12;1.27;;;;;;;30.61;94.55;100723.30;1747442;81;21108;-77
2021/06/19 06:43:30;;;;;;;3.85;1.47;;;;;;;30.23;92.76;100726.33;1747574;81;21198;-76
2021/06/19 06:45:57;;;;;;;4.17;1.40;;;;;;;29.99;100.00;100725.75;1746252;81;21122;-77
2021/06/19 06:48:24;;;;;;;4.17;1.50;;;;;;;30.20;100.00;100726.14;1747269;81;21955;-77
2021/06/19 06:50:50;;;;;;;2.50;1.40;;;;;;;30.40;98.10;100714.12;1746791;81;21106;-77
2021/06/19 06:53:17;;;;;;;3.50;1.65;;;;;;;30.27;100.00;100713.08;1747313;81;22101;-77
2021/06/19 06:55:43;;;;;;;2.45;1.17;;;;;;;30.88;92.28;100704.89;1743771;81;21004;-65
2021/06/19 06:58:10;;;;;;;2.95;1.27;;;;;;;30.40;89.77;100718.95;1736550;81;20995;-77
2021/06/19 07:00:37;;;;;;;3.72;1.50;;;;;;;30.59;92.56;100710.69;1743773;81;21002;-70
2021/06/19 07:03:05;;;;;;;2.83;1.17;;;;;;;30.48;97.96;100716.08;1747855;81;22139;-78
2021/06/19 07:05:31;;;;;;;4.10;1.60;;;;;;;30.59;95.71;100708.56;1747042;81;21088;-79
2021/06/19 07:07:58;;;;;;;4.58;1.20;;;;;;;30.59;95.46;100717.42;1750162;81;20989;-74
2021/06/19 07:10:25;;;;;;;5.87;1.22;;;;;;;30.67;84.91;100698.39;1745915;80;20880;-75
2021/06/19 07:12:52;;;;;;;2.42;1.20;;;;;;;30.13;89.15;100705.02;1749040;81;21066;-77
2021/06/19 07:15:19;;;;;;;4.33;1.45;;;;;;;29.99;93.63;100708.28;1747677;80;22091;-74
2021/06/19 07:17:49;;;;;;;4.00;1.32;;;;;;;29.83;97.59;100712.40;1747499;81;21707;-75
2021/06/19 07:20:16;;;;;;;7.80;1.50;;;;;;;29.90;94.49;100712.79;1747922;81;20939;-75
2021/06/19 07:22:43;;;;;;;3.40;1.80;;;;;;;29.61;97.52;100707.73;1746125;80;20928;-73
2021/06/19 07:25:11;;;;;;;6.22;1.70;;;;;;;29.25;100.00;100716.47;1752889;81;22103;-75
2021/06/19 07:27:37;;;;;;;2.92;1.37;;;;;;;29.10;100.00;100717.53;1748513;81;20924;-76
2021/06/19 07:30:09;;;;;;;6.45;1.45;;;;;;;28.96;100.00;100723.39;1750080;81;21145;-74
2021/06/19 07:32:36;;;;;;;2.37;1.10;;;;;;;28.89;100.00;100694.79;1746847;81;21545;-66
2021/06/19 07:35:06;;;;;;;6.08;1.57;;;;;;;28.92;100.00;100726.41;1745669;81;20943;-75
2021/06/19 07:37:32;;;;;;;5.55;1.40;;;;;;;28.98;100.00;100723.91;1738135;81;21564;-77
2021/06/19 07:39:58;;;;;;;3.42;1.20;;;;;;;28.78;100.00;100729.05;1743297;80;20955;-68
2021/06/19 07:42:26;;;;;;;7.53;1.50;;;;;;;28.82;100.00;100717.42;1754962;81;21148;-77
2021/06/19 07:44:53;;;;;;;5.35;1.90;;;;;;;29.21;100.00;100724.84;1743210;82;20996;-70
2021/06/19 07:47:19;;;;;;;5.17;1.57;;;;;;;29.56;100.00;100726.87;1753952;81;21118;-78
2021/06/19 07:49:46;;;;;;;6.60;1.30;;;;;;;29.79;100.00;100714.89;1742231;80;21477;-77
2021/06/19 07:52:12;;;;;;;3.02;1.55;;;;;;;29.79;99.86;100722.40;1743198;80;21047;-66
2021/06/19 07:54:39;;;;;;;7.37;1.52;;;;;;;29.57;99.87;100700.80;1754249;80;22375;-76
2021/06/19 07:57:07;;;;;;;6.90;1.65;;;;;;;29.26;100.00;100705.97;1747314;81;21912;-74
2021/06/19 07:59:35;;;;;;;4.00;1.30;;;;;;;29.07;100.00;100708.17;1748750;80;22476;-77
2021/06/19 08:02:02;;;;;;;3.52;1.40;;;;;;;28.79;100.00;100716.69;1744745;80;21130;-75
2021/06/19 08:04:29;;;;;;;5.37;1.95;;;;;;;28.47;100.00;100713.98;1745400;80;21126;-74
2021/06/19 08:06:56;;;;;;;6.55;1.50;;;;;;;28.33;100.00;100712.53;1740194;82;21138;-66
2021/06/19 08:09:23;;;;;;;3.55;1.50;;;;;;;28.27;100.00;100709.69;1750175;80;21038;-75
2021/06/19 08:11:50;;;;;;;6.47;1.67;;;;;;;28.45;100.00;100709.44;1747760;80;20979;-76
2021/06/19 08:14:19;;;;;;;2.60;1.40;;;;;;;28.26;100.00;100703.54;1747310;81;21485;-75
2021/06/19 08:16:51;;;;;;;4.87;1.80;;;;;;;28.30;100.00;100720.64;1746752;81;21006;-74
2021/06/19 08:19:17;;;;;;;5.80;1.50;;;;;;;28.36;100.00;100702.03;1746478;81;22355;-75
2021/06/19 08:21:44;;;;;;;5.40;1.45;;;;;;;28.49;100.00;100701.88;1747265;81;20995;-77
2021/06/19 08:24:10;;;;;;;5.35;1.40;;;;;;;28.59;100.00;100700.91;1750576;81;20996;-76
2021/06/19 08:26:38;;;;;;;5.00;1.45;;;;;;;28.73;100.00;100704.99;1743425;81;21080;-68
2021/06/19 08:29:06;;;;;;;8.25;1.80;;;;;;;28.93;100.00;100701.16;1742709;81;20996;-73
2021/06/19 08:31:35;;;;;;;6.45;1.50;;;;;;;29.20;100.00;100696.41;1744987;81;21128;-74
2021/06/19 08:34:03;;;;;;;7.72;1.60;;;;;;;29.48;100.00;100697.23;1754705;81;21517;-75
2021/06/19 08:36:30;;;;;;;5.75;1.57;;;;;;;29.75;100.00;100709.32;1749703;81;21512;-67
2021/06/19 08:38:58;;;;;;;4.65;1.30;;;;;;;30.09;100.00;100693.83;1742007;81;21501;-72
2021/06/19 08:41:26;;;;;;;5.90;1.77;;;;;;;30.30;100.00;100688.23;1750880;81;22034;-74
2021/06/19 08:43:53;;;;;;;6.78;2.30;;;;;;;30.44;96.79;100704.34;1752196;81;21149;-77
2021/06/19 08:46:21;;;;;;;9.40;1.75;;;;;;;30.52;93.96;100685.55;1749607;81;20873;-75
2021/06/19 08:48:52;;;;;;;6.67;1.87;;;;;;;30.66;91.08;100688.74;1753158;81;21621;-66
2021/06/19 08:51:19;;;;;;;4.80;1.35;;;;;;;30.85;89.26;100685.88;1750496;81;21057;-75
2021/06/19 08:53:49;;;;;;;6.65;2.10;;;;;;;30.95;89.62;100692.32;1750799;80;21106;-79
2021/06/19 08:56:17;;;;;;;8.30;1.77;;;;;;;30.79;90.15;100690.58;1740995;81;21110;-69
2021/06/19 08:58:45;;;;;;;3.60;1.27;;;;;;;31.00;90.64;100686.27;1751351;81;20927;-82
2021/06/19 09:01:12;;;;;;;6.58;1.70;;;;;;;31.19;90.46;100679.30;1744708;81;20983;-78
2021/06/19 09:03:39;;;;;;;5.10;2.12;;;;;;;31.41;80.55;100689.79;1745862;81;20970;-74
2021/06/19 09:06:22;;;;;;;5.53;1.80;;;;;;;31.23;79.17;100710.44;1753387;80;20924;-74
2021/06/19 09:09:09;;;;;;;7.67;1.87;;;;;;;31.02;79.76;100681.34;1750385;80;21050;-66
2021/06/19 09:11:42;;;;;;;5.75;1.57;;;;;;;30.97;82.63;100679.36;1748127;80;21451;-76
2021/06/19 09:14:11;;;;;;;4.70;1.40;;;;;;;31.13;79.71;100675.14;1751110;81;20939;-79
2021/06/19 09:16:41;;;;;;;8.65;1.75;;;;;;;31.38;74.10;100679.62;1749822;81;20924;-66
2021/06/19 09:19:37;;;;;;;3.50;1.60;;;;;;;31.33;76.85;100677.06;1751921;81;21173;-76
2021/06/19 09:22:21;;;;;;;2.83;1.50;;;;;;;31.44;80.92;100667.59;1741971;80;21146;-65
2021/06/19 09:24:53;;;;;;;6.55;1.60;;;;;;;31.59;72.72;100665.80;1748007;80;21019;-77
2021/06/19 09:27:36;;;;;;;4.42;1.60;;;;;;;31.52;72.44;100668.19;1744201;81;21454;-76
2021/06/19 09:30:18;;;;;;;3.95;1.85;;;;;;;31.49;68.61;100664.20;1752110;80;22195;-74
2021/06/19 09:32:53;;;;;;;9.73;1.50;;;;;;;31.58;72.99;100660.73;1751368;81;20975;-79
2021/06/19 09:35:28;;;;;;;4.95;1.62;;;;;;;31.79;72.51;100660.94;1751101;81;21024;-72
2021/06/19 09:38:09;;;;;;;2.67;1.30;;;;;;;31.72;73.25;100646.02;1738994;81;21259;-76
2021/06/19 09:40:40;;;;;;;4.05;1.45;;;;;;;31.93;66.27;100670.46;1748632;81;20931;-77
2021/06/19 09:43:26;;;;;;;4.75;1.72;;;;;;;32.28;73.15;100664.27;1749868;81;21028;-77
2021/06/19 09:46:09;;;;;;;5.05;1.72;;;;;;;32.28;73.15;100664.27;1750138;80;21542;-76
2021/06/19 09:48:40;;;;;;;6.45;1.57;;;;;;;32.26;64.46;100647.06;1748293;80;21079;-74
2021/06/19 09:51:24;;;;;;;8.35;1.60;;;;;;;32.26;61.67;100648.41;1752141;80;20996;-72
2021/06/19 09:54:04;;;;;;;5.37;1.40;;;;;;;31.88;56.74;100650.97;1756349;80;21532;-74
2021/06/19 09:56:32;;;;;;;4.85;1.30;;;;;;;31.39;54.95;100643.49;1750421;81;21146;-73
2021/06/19 09:58:59;;;;;;;7.87;1.60;;;;;;;30.88;60.37;100657.00;1737475;81;21410;-71
2021/06/19 10:01:37;;;;;;;4.35;1.50;;;;;;;30.72;64.47;100661.93;1752089;80;21391;-72
2021/06/19 10:04:04;;;;;;;9.20;1.47;;;;;;;30.62;61.47;100642.81;1757277;80;21003;-74
2021/06/19 10:06:31;;;;;;;4.72;1.55;;;;;;;30.52;64.79;100645.75;1756047;80;21108;-73
2021/06/19 10:08:59;;;;;;;4.85;1.50;;;;;;;30.44;67.04;100646.50;1753296;80;21081;-74
2021/06/19 10:11:29;;;;;;;7.70;1.30;;;;;;;30.32;73.35;100640.34;1754875;80;21014;-71
2021/06/19 10:13:57;;;;;;;7.17;2.00;;;;;;;30.43;77.27;100638.20;1733364;81;26834;-69
2021/06/19 10:16:25;;;;;;;5.58;1.40;;;;;;;30.57;70.86;100643.48;1752451;80;20911;-72
2021/06/19 10:18:52;;;;;;;5.12;1.20;;;;;;;30.66;71.33;100637.06;1755046;80;20990;-73
2021/06/19 10:21:21;;;;;;;3.90;1.20;;;;;;;30.65;75.18;100635.48;1751207;80;21078;-76
2021/06/19 10:23:49;;;;;;;3.67;1.37;;;;;;;30.97;70.84;100651.09;1753499;80;21050;-65
2021/06/19 10:26:21;;;;;;;6.58;1.60;;;;;;;31.24;56.02;100644.69;1749105;81;21097;-72
2021/06/19 10:28:47;;;;;;;4.70;1.40;;;;;;;31.14;53.18;100639.05;1752410;80;21486;-73
2021/06/19 10:31:17;;;;;;;6.62;1.72;;;;;;;31.23;62.72;100636.38;1753458;80;20936;-73
2021/06/19 10:33:43;;;;;;;6.05;1.70;;;;;;;31.39;60.24;100640.80;1748471;80;21054;-63
2021/06/19 10:36:10;;;;;;;4.90;1.80;;;;;;;31.65;66.38;100648.38;1749004;80;21592;-69
2021/06/19 10:38:55;;;;;;;4.67;1.70;;;;;;;31.83;58.45;100634.92;1751743;80;22313;-71
2021/06/19 10:41:25;;;;;;;3.75;1.35;;;;;;;31.96;61.82;100638.83;1752433;80;20994;-70
2021/06/19 10:43:52;;;;;;;8.58;1.50;;;;;;;32.23;49.27;100630.95;1747650;80;20919;-70
2021/06/19 10:46:36;;;;;;;5.40;1.40;;;;;;;32.16;55.51;100634.72;1750951;80;21058;-69
2021/06/19 10:49:19;;;;;;;5.45;1.47;;;;;;;32.23;56.97;100639.05;1749206;80;20936;-70
2021/06/19 10:51:46;;;;;;;4.42;1.37;;;;;;;32.26;52.17;100632.78;1738958;80;21138;-70
2021/06/19 10:54:25;;;;;;;5.20;1.35;;;;;;;32.30;50.02;100631.82;1749232;80;21465;-71
2021/06/19 10:56:59;;;;;;;3.55;1.10;;;;;;;32.21;52.04;100633.75;1743526;80;21055;-65
2021/06/19 10:59:30;;;;;;;4.60;1.57;;;;;;;32.15;50.98;100626.92;1750426;80;21581;-73
2021/06/19 11:01:58;;;;;;;5.90;1.82;;;;;;;32.15;50.98;100626.92;1738837;80;21002;-73
2021/06/19 11:04:41;;;;;;;6.78;1.95;;;;;;;32.22;51.06;100629.38;1748945;80;21786;-66
2021/06/19 11:07:25;;;;;;;5.92;1.60;;;;;;;32.25;50.28;100622.55;1742725;80;21035;-69
2021/06/19 11:09:52;;;;;;;4.33;1.20;;;;;;;32.31;49.62;100615.07;1749442;80;21022;-64
2021/06/19 11:12:35;;;;;;;3.52;1.47;;;;;;;32.23;48.13;100616.67;1748269;80;21573;-72
2021/06/19 11:15:13;;;;;;;3.35;1.72;;;;;;;32.21;50.11;100612.17;1745043;80;21010;-73
2021/06/19 11:17:39;;;;;;;4.37;1.82;;;;;;;32.34;52.15;100611.73;1739217;80;21124;-66
2021/06/19 11:20:16;;;;;;;4.22;1.40;;;;;;;32.25;49.00;100604.23;1756302;80;20965;-64
2021/06/19 11:22:55;;;;;;;9.75;1.67;;;;;;;32.25;49.00;100604.23;1744754;80;20986;-71
2021/06/19 11:25:33;;;;;;;4.55;1.77;;;;;;;32.21;46.76;100600.82;1750131;80;20974;-63
2021/06/19 11:28:09;;;;;;;5.90;1.50;;;;;;;32.18;47.48;100603.36;1744935;80;20931;-68
2021/06/19 11:30:40;;;;;;;4.60;1.20;;;;;;;32.18;42.25;100593.92;1741635;80;21803;-69